Time;durP1;ratioP1;P1;durP2;ratioP2;P2;SDS_P1;SDS_P2;PMS_P1;PMS_P2;Temp;Humidity;BMP_temperature;BMP_pressure;BME280_temperature;BME280_humidity;BME280_pressure;Samples;Min_cycle;Max_cycle;Signal;HPM_P1;HPM_P2
2021/11/25 00:01:28;;;;;;;7.10;4.80;;;-3.10;99.90;-3.80;96759.00;;;;5064679;28;20826;-72
2021/11/25 00:04:19;;;;;;;8.43;5.77;;;-3.10;99.90;-3.90;96763.00;;;;5064650;28;20544;-72
2021/11/25 00:07:08;;;;;;;7.97;6.03;;;-3.10;99.90;-3.90;96745.00;;;;5058760;28;20462;-74
2021/11/25 00:09:57;;;;;;;9.47;5.33;;;-3.10;99.90;-3.90;96754.00;;;;5049230;28;20830;-73
2021/11/25 00:12:46;;;;;;;7.40;5.33;;;-3.20;99.90;-4.00;96745.00;;;;5061800;28;20446;-73
2021/11/25 00:15:35;;;;;;;6.17;5.03;;;-3.20;99.90;-4.10;96761.00;;;;5063607;28;20437;-73
2021/11/25 00:18:24;;;;;;;8.37;6.43;;;-3.30;99.90;-3.90;96753.00;;;;5065121;28;20427;-72
2021/11/25 00:21:14;;;;;;;9.07;5.90;;;-3.30;99.90;-3.90;96753.00;;;;5057493;28;20443;-73
2021/11/25 00:24:05;;;;;;;10.03;5.13;;;-3.30;99.90;-3.90;96744.00;;;;5062521;28;20798;-73
2021/11/25 00:26:54;;;;;;;5.40;4.83;;;-3.20;99.90;-3.80;96745.00;;;;5056174;28;20430;-73
2021/11/25 00:29:43;;;;;;;10.03;5.83;;;-3.20;99.90;-3.90;96732.00;;;;5056252;28;20442;-73
2021/11/25 00:32:33;;;;;;;7.03;5.60;;;-3.20;99.90;-4.00;96733.00;;;;5064765;28;20833;-73
2021/11/25 00:35:22;;;;;;;7.70;5.27;;;-3.30;99.90;-4.20;96731.00;;;;5063632;28;20843;-73
2021/11/25 00:38:12;;;;;;;8.60;4.83;;;-3.30;99.90;-4.40;96724.00;;;;5063788;28;20425;-72
2021/11/25 00:41:01;;;;;;;5.63;4.93;;;-3.40;99.90;-4.60;96722.00;;;;5063452;28;20445;-74
2021/11/25 00:43:50;;;;;;;5.60;4.87;;;-3.50;99.90;-4.40;96723.00;;;;5062454;28;20443;-73
2021/11/25 00:46:39;;;;;;;7.20;5.13;;;-3.50;99.90;-4.40;96719.00;;;;5056894;28;20414;-73
2021/11/25 00:49:28;;;;;;;7.60;6.70;;;-3.60;99.90;-4.40;96717.00;;;;5058890;28;20434;-73
2021/11/25 00:52:17;;;;;;;6.50;4.93;;;-3.60;99.90;-4.10;96712.00;;;;5062266;28;20457;-73
2021/11/25 00:55:10;;;;;;;10.50;6.83;;;-3.60;99.90;-4.10;96720.00;;;;5046172;28;20434;-73
2021/11/25 00:57:59;;;;;;;8.30;5.47;;;-3.50;99.90;-4.10;96712.00;;;;5060698;28;20450;-72
2021/11/25 01:00:49;;;;;;;7.07;4.83;;;-3.50;99.90;-4.30;96710.00;;;;5058721;28;20437;-73
2021/11/25 01:03:37;;;;;;;9.80;6.27;;;-3.50;99.90;-4.20;96709.00;;;;5068021;28;20434;-73
2021/11/25 01:06:26;;;;;;;8.97;6.17;;;-3.50;99.90;-4.00;96705.00;;;;5065351;28;20427;-73
2021/11/25 01:09:15;;;;;;;8.63;5.50;;;-2.60;99.90;-4.20;96704.00;;;;5049118;28;20431;-73
2021/11/25 01:12:08;;;;;;;5.87;5.30;;;-3.50;99.90;-4.50;96708.00;;;;5059265;28;20457;-70
2021/11/25 01:14:57;;;;;;;5.90;4.93;;;-3.50;99.90;-4.70;96695.00;;;;5066016;28;20933;-73
2021/11/25 01:17:46;;;;;;;9.67;5.93;;;-3.60;99.90;-4.90;96687.00;;;;5067464;28;20472;-73
2021/11/25 01:20:37;;;;;;;11.27;6.83;;;-3.80;99.90;-4.50;96699.00;;;;5066958;28;20426;-73
2021/11/25 01:23:29;;;;;;;6.80;5.23;;;-3.80;99.90;-4.40;96690.00;;;;5066848;28;20431;-74
2021/11/25 01:26:18;;;;;;;8.77;5.27;;;-3.80;99.90;-4.40;96690.00;;;;5067874;28;20433;-73
2021/11/25 01:29:10;;;;;;;7.87;5.73;;;-3.80;99.90;-4.50;96686.00;;;;5066951;28;20873;-73
2021/11/25 01:31:59;;;;;;;7.63;5.93;;;-3.70;99.90;-4.60;96692.00;;;;5067263;28;20439;-74
2021/11/25 01:34:48;;;;;;;10.30;5.77;;;-3.80;99.90;-4.70;96674.00;;;;5065145;28;20461;-72
2021/11/25 01:37:38;;;;;;;7.97;5.93;;;-3.80;99.90;-4.50;96674.00;;;;5065812;28;20473;-74
2021/11/25 01:40:27;;;;;;;9.23;6.43;;;-3.80;99.90;-4.40;96658.00;;;;5066234;28;20429;-73
2021/11/25 01:43:20;;;;;;;9.10;5.37;;;-3.80;99.90;-4.30;96670.00;;;;5066726;28;20419;-73
2021/11/25 01:46:16;;;;;;;5.23;3.57;;;-3.80;99.90;-4.20;96667.00;;;;5066700;28;20419;-74
2021/11/25 01:49:05;;;;;;;7.87;5.33;;;-3.70;99.90;-4.40;96660.00;;;;5058498;28;20431;-71
2021/11/25 01:51:54;;;;;;;6.93;5.63;;;-3.70;99.90;-4.40;96662.00;;;;5067134;28;20481;-73
2021/11/25 01:54:43;;;;;;;5.43;4.80;;;-3.70;99.90;-4.60;96660.00;;;;5067327;28;20502;-73
2021/11/25 01:57:32;;;;;;;12.20;7.43;;;-3.70;99.90;-4.50;96655.00;;;;5071305;28;22266;-73
2021/11/25 02:00:27;;;;;;;7.83;5.97;;;-3.70;99.90;-4.50;96646.00;;;;5086966;28;20492;-74
2021/11/25 02:03:18;;;;;;;11.20;6.53;;;-3.70;99.90;-4.40;96655.00;;;;5087028;28;20924;-73
2021/11/25 02:06:08;;;;;;;7.90;6.17;;;-3.80;99.90;-4.60;96641.00;;;;5087253;28;20955;-73
2021/11/25 02:08:59;;;;;;;9.93;7.00;;;-3.80;99.90;-4.40;96633.00;;;;5079673;28;20994;-72
2021/11/25 02:11:48;;;;;;;8.60;6.33;;;-3.70;99.90;-4.40;96644.00;;;;5083963;28;20460;-73
2021/11/25 02:14:39;;;;;;;9.27;6.70;;;-3.70;99.90;-4.50;96631.00;;;;5085979;28;21491;-74
2021/11/25 02:17:28;;;;;;;8.67;6.63;;;-3.70;99.90;-4.50;96624.00;;;;5087059;28;20465;-74
2021/11/25 02:20:19;;;;;;;10.50;6.33;;;-3.80;99.90;-4.40;96630.00;;;;5085641;28;20936;-73
2021/11/25 02:23:12;;;;;;;8.00;5.90;;;-3.80;99.90;-4.30;96624.00;;;;5085628;28;20452;-74
2021/11/25 02:26:01;;;;;;;6.50;5.00;;;-3.80;99.90;-4.20;96626.00;;;;5086519;28;20441;-72
2021/11/25 02:28:50;;;;;;;7.93;5.27;;;-3.70;99.90;-4.10;96629.00;;;;5083069;28;20414;-73
2021/11/25 02:31:39;;;;;;;8.63;6.03;;;-3.70;99.90;-4.00;96625.00;;;;5085094;28;20449;-74
2021/11/25 02:34:28;;;;;;;10.07;6.90;;;-3.60;99.90;-4.00;96622.00;;;;5086015;28;20421;-73
2021/11/25 02:37:17;;;;;;;7.33;5.67;;;-3.60;99.90;-4.10;96613.00;;;;5085778;28;20469;-72
2021/11/25 02:40:23;;;;;;;6.67;5.13;;;-3.50;99.90;-4.10;96603.00;;;;5086409;28;20422;-74
2021/11/25 02:43:15;;;;;;;8.07;4.97;;;-3.60;99.90;-4.30;96605.00;;;;5083708;28;20507;-74
2021/11/25 02:46:08;;;;;;;7.23;5.57;;;-3.60;99.90;-4.30;96604.00;;;;5083893;28;20451;-73
2021/11/25 02:48:58;;;;;;;9.50;6.87;;;-3.60;99.90;-4.20;96611.00;;;;5085549;28;20787;-74
2021/11/25 02:51:47;;;;;;;7.43;5.93;;;-3.60;99.90;-4.20;96611.00;;;;5085725;28;20449;-74
2021/11/25 02:54:36;;;;;;;9.20;6.10;;;-3.60;99.90;-4.40;96592.00;;;;5085950;28;20425;-74
2021/11/25 02:57:27;;;;;;;8.13;5.07;;;-3.60;99.90;-4.40;96596.00;;;;5085485;28;20461;-74
2021/11/25 03:00:32;;;;;;;9.83;6.87;;;-3.60;99.90;-4.20;96597.00;;;;5084751;28;20806;-72
2021/11/25 03:03:21;;;;;;;9.63;6.20;;;-3.60;99.90;-4.20;96588.00;;;;5085567;28;20429;-74
2021/11/25 03:06:10;;;;;;;8.17;6.03;;;-3.60;99.90;-3.90;96584.00;;;;5085842;28;20430;-74
2021/11/25 03:09:00;;;;;;;7.03;6.33;;;-3.60;99.90;-3.80;96593.00;;;;5078978;28;20427;-74
2021/11/25 03:11:53;;;;;;;7.47;6.47;;;-3.50;99.90;-3.70;96579.00;;;;5082190;28;20449;-74
2021/11/25 03:14:43;;;;;;;9.23;6.03;;;-3.40;99.90;-3.70;96594.00;;;;5085244;28;20791;-74
2021/11/25 03:17:32;;;;;;;11.77;5.83;;;-3.30;99.90;-3.80;96591.00;;;;5084959;28;20984;-74
2021/11/25 03:20:21;;;;;;;7.90;6.27;;;-3.30;99.90;-3.70;96582.00;;;;5072038;28;20724;-74
2021/11/25 03:23:12;;;;;;;7.63;6.40;;;-3.20;99.90;-3.60;96574.00;;;;5084254;28;20457;-73
2021/11/25 03:26:04;;;;;;;13.47;7.33;;;-3.20;99.90;-3.50;96579.00;;;;5083933;28;20795;-72
2021/11/25 03:28:54;;;;;;;8.93;7.57;;;-3.20;99.90;-3.40;96569.00;;;;5085612;28;20989;-73
2021/11/25 03:31:44;;;;;;;9.80;6.67;;;-3.10;99.90;-3.40;96575.00;;;;5084558;28;20827;-72
2021/11/25 03:34:33;;;;;;;9.43;6.70;;;-3.10;99.90;-3.30;96567.00;;;;5084636;28;20438;-73
2021/11/25 03:37:22;;;;;;;9.93;6.03;;;-3.00;99.90;-3.30;96561.00;;;;5085303;28;20457;-74
2021/11/25 03:40:12;;;;;;;8.00;5.77;;;-2.90;99.90;-3.20;96573.00;;;;5085948;28;20475;-74
2021/11/25 03:43:01;;;;;;;11.37;6.90;;;-2.90;99.90;-3.10;96573.00;;;;5085441;28;20456;-74
2021/11/25 03:45:51;;;;;;;9.00;5.97;;;-2.90;99.90;-3.20;96558.00;;;;5084810;28;20983;-74
2021/11/25 03:48:41;;;;;;;10.53;7.13;;;-2.80;99.90;-3.30;96563.00;;;;5085533;28;20433;-74
2021/11/25 03:51:30;;;;;;;11.20;7.73;;;-2.80;99.90;-3.30;96546.00;;;;5084212;28;20445;-73
2021/11/25 03:54:19;;;;;;;8.23;5.97;;;-2.80;99.90;-3.00;96555.00;;;;5084119;28;20426;-74
2021/11/25 03:57:09;;;;;;;8.80;6.30;;;-2.70;99.90;-2.90;96546.00;;;;5085158;28;20433;-73
2021/11/25 03:59:57;;;;;;;9.23;6.70;;;-2.70;99.90;-3.00;96560.00;;;;5085221;28;20437;-73
2021/11/25 04:02:48;;;;;;;12.43;7.97;;;-2.60;99.90;-2.90;96544.00;;;;5085792;28;20445;-72
2021/11/25 04:05:38;;;;;;;10.40;6.93;;;-2.60;99.90;-2.90;96545.00;;;;5084696;28;20433;-73
2021/11/25 04:08:27;;;;;;;9.30;6.67;;;-2.50;99.90;-2.90;96541.00;;;;5082333;28;20433;-73
2021/11/25 04:11:16;;;;;;;8.47;6.90;;;-2.50;99.90;-2.80;96544.00;;;;5076480;28;20464;-72
2021/11/25 04:14:05;;;;;;;14.43;6.60;;;-2.50;99.90;-2.80;96536.00;;;;5074668;28;20422;-73
2021/11/25 04:16:54;;;;;;;13.80;7.43;;;-2.40;99.90;-2.90;96541.00;;;;5084749;28;20437;-73
2021/11/25 04:19:43;;;;;;;9.33;7.63;;;-2.40;99.90;-2.90;96542.00;;;;5084230;28;20976;-72
2021/11/25 04:22:33;;;;;;;9.10;6.90;;;-3.30;99.90;-2.90;96542.00;;;;5084465;28;20826;-74
2021/11/25 04:25:22;;;;;;;11.50;6.93;;;-2.40;99.90;-2.80;96536.00;;;;5072235;28;20920;-74
2021/11/25 04:28:11;;;;;;;7.40;6.20;;;-2.40;99.90;-2.80;96521.00;;;;5084309;28;20942;-74
2021/11/25 04:37:09;;;;;;;9.63;6.30;;;-2.30;99.90;-2.60;96529.00;;;;5061554;28;20429;-74
2021/11/25 04:39:59;;;;;;;7.90;6.30;;;-2.30;99.90;-2.70;96523.00;;;;5089182;28;20424;-73
2021/11/25 04:42:48;;;;;;;8.03;6.27;;;-2.30;99.90;-2.80;96521.00;;;;5088954;28;20456;-74
2021/11/25 04:45:39;;;;;;;7.17;5.67;;;-2.30;99.90;-2.70;96517.00;;;;5088345;28;20433;-73
2021/11/25 04:48:29;;;;;;;8.67;5.50;;;-2.30;99.90;-2.70;96515.00;;;;5088795;28;20414;-73
2021/11/25 04:51:18;;;;;;;15.03;7.03;;;-2.30;99.90;-2.60;96517.00;;;;5088037;28;20437;-73
2021/11/25 04:54:08;;;;;;;11.97;7.20;;;-2.20;99.90;-2.40;96514.00;;;;5088905;28;20796;-74
2021/11/25 04:56:58;;;;;;;7.20;6.10;;;-2.20;99.90;-2.40;96516.00;;;;5088101;28;21224;-74
2021/11/25 04:59:47;;;;;;;7.63;6.50;;;-2.10;99.90;-2.40;96523.00;;;;5088816;28;20979;-75
2021/11/25 05:02:36;;;;;;;9.83;6.67;;;-2.10;99.90;-2.40;96513.00;;;;5087886;28;20802;-71
2021/11/25 05:05:25;;;;;;;9.80;6.73;;;-2.10;99.90;-2.40;96511.00;;;;5088365;28;20800;-73
2021/11/25 05:08:15;;;;;;;8.77;6.20;;;-2.10;99.90;-2.40;96510.00;;;;5087096;28;20452;-72
2021/11/25 05:11:03;;;;;;;10.00;7.40;;;-2.00;99.90;-2.40;96512.00;;;;5078943;28;20447;-72
2021/11/25 05:13:54;;;;;;;10.43;7.63;;;-2.00;99.90;-2.60;96502.00;;;;5089090;28;20437;-72
2021/11/25 05:16:43;;;;;;;6.30;5.70;;;-2.00;99.90;-2.50;96496.00;;;;5087403;28;20904;-72
2021/11/25 05:19:32;;;;;;;8.23;6.33;;;-2.00;99.90;-2.30;96489.00;;;;5087983;28;21013;-73
2021/11/25 05:22:21;;;;;;;8.27;6.57;;;-1.00;99.90;-2.30;96474.00;;;;5076683;28;20453;-74
2021/11/25 05:25:12;;;;;;;9.03;5.93;;;-2.00;99.90;-2.40;96493.00;;;;5090615;28;20418;-73
2021/11/25 05:28:01;;;;;;;9.03;6.33;;;-2.00;99.90;-2.40;96488.00;;;;5092055;28;20444;-73
2021/11/25 05:30:51;;;;;;;10.40;7.23;;;-2.00;99.90;-2.60;96478.00;;;;5091520;28;20418;-73
2021/11/25 05:33:40;;;;;;;8.43;6.40;;;-2.00;99.90;-2.50;96462.00;;;;5086741;28;20445;-74
2021/11/25 05:36:29;;;;;;;7.80;6.27;;;-2.00;99.90;-2.40;96464.00;;;;5085399;28;20434;-72
2021/11/25 05:39:18;;;;;;;7.63;5.87;;;-2.00;99.90;-2.60;96471.00;;;;5086762;28;20468;-72
2021/11/25 05:42:08;;;;;;;6.73;5.70;;;-2.10;99.90;-2.60;96468.00;;;;5087553;28;20448;-72
2021/11/25 05:44:57;;;;;;;10.20;7.27;;;-2.00;99.90;-2.70;96467.00;;;;5083529;28;20432;-72
2021/11/25 05:47:51;;;;;;;10.37;5.73;;;-2.10;99.90;-2.70;96473.00;;;;5088889;28;20418;-72
2021/11/25 05:50:40;;;;;;;14.23;7.33;;;-2.10;99.90;-2.60;96469.00;;;;5087732;28;20437;-72
2021/11/25 05:53:28;;;;;;;11.13;7.03;;;-2.10;99.90;-2.30;96461.00;;;;5089898;28;20422;-72
2021/11/25 05:56:17;;;;;;;8.60;6.20;;;-2.10;99.90;-2.30;96459.00;;;;5087618;28;20426;-73
2021/11/25 05:59:06;;;;;;;13.30;6.30;;;-2.00;99.90;-2.30;96448.00;;;;5086799;28;20454;-73
2021/11/25 06:01:55;;;;;;;9.00;6.33;;;-2.00;99.90;-2.20;96461.00;;;;5088102;28;20453;-73
2021/11/25 06:04:45;;;;;;;6.90;5.50;;;-1.90;99.90;-2.20;96457.00;;;;5090469;28;21092;-72
2021/11/25 06:07:34;;;;;;;7.83;6.17;;;-1.90;99.90;-2.20;96450.00;;;;5089200;28;20440;-72
2021/11/25 06:10:24;;;;;;;8.20;6.00;;;-1.90;99.90;-2.40;96442.00;;;;5077114;28;20434;-74
2021/11/25 06:13:13;;;;;;;7.40;5.73;;;-1.90;99.90;-2.40;96449.00;;;;5087076;28;20430;-74
2021/11/25 06:16:03;;;;;;;8.13;5.83;;;-1.90;99.90;-2.30;96442.00;;;;5084988;28;20429;-73
2021/11/25 06:18:52;;;;;;;11.87;7.03;;;-1.90;99.90;-2.30;96444.00;;;;5088670;28;20512;-72
2021/11/25 06:21:42;;;;;;;9.77;6.07;;;-1.80;99.90;-2.30;96438.00;;;;5087448;28;20827;-73
2021/11/25 06:24:32;;;;;;;10.60;6.30;;;-1.90;99.90;-2.20;96451.00;;;;5086835;28;20422;-73
2021/11/25 06:27:21;;;;;;;9.30;6.47;;;-1.80;99.90;-2.10;96451.00;;;;5081913;28;20426;-73
2021/11/25 06:30:13;;;;;;;10.70;6.27;;;-2.70;99.90;-2.00;96445.00;;;;5087159;28;20820;-73
2021/11/25 06:33:02;;;;;;;6.70;5.93;;;-0.70;99.90;-2.00;96444.00;;;;5085942;28;20840;-72
2021/11/25 06:35:52;;;;;;;12.67;7.43;;;-1.70;99.90;-2.00;96439.00;;;;5081633;28;20414;-73
2021/11/25 06:38:42;;;;;;;10.87;6.43;;;-1.70;99.90;-1.90;96442.00;;;;5080418;28;20426;-73
2021/11/25 06:41:31;;;;;;;10.60;6.47;;;-1.70;99.90;-1.90;96445.00;;;;5087705;28;20434;-74
2021/11/25 06:44:20;;;;;;;8.30;6.37;;;-1.70;99.90;-1.80;96440.00;;;;5087502;28;20440;-73
2021/11/25 06:47:09;;;;;;;7.73;5.90;;;-1.60;99.90;-2.00;96435.00;;;;5080855;28;20430;-74
2021/11/25 06:49:58;;;;;;;15.50;6.43;;;-1.60;99.90;-2.20;96450.00;;;;5084137;28;20425;-74
2021/11/25 06:52:49;;;;;;;8.63;6.10;;;-1.60;99.90;-2.20;96436.00;;;;5084148;28;20822;-74
2021/11/25 06:55:39;;;;;;;11.40;6.70;;;-1.60;99.90;-2.00;96454.00;;;;5085572;28;20916;-74
2021/11/25 06:58:28;;;;;;;8.37;5.33;;;-1.60;99.90;-1.80;96441.00;;;;5085959;28;20976;-73
2021/11/25 07:01:17;;;;;;;12.37;7.40;;;-1.60;99.90;-1.70;96440.00;;;;5085418;28;20445;-74
2021/11/25 07:04:06;;;;;;;11.37;6.87;;;-1.50;99.90;-1.70;96440.00;;;;5078045;28;20440;-73
2021/11/25 07:06:54;;;;;;;10.43;7.00;;;-1.50;99.90;-1.60;96453.00;;;;5072525;28;20441;-73
2021/11/25 07:09:44;;;;;;;8.33;5.80;;;-1.40;99.90;-1.80;96441.00;;;;5080396;28;20952;-73
2021/11/25 07:12:34;;;;;;;9.73;6.97;;;-1.40;99.90;-1.80;96441.00;;;;5075379;28;20763;-74
2021/11/25 07:15:26;;;;;;;10.17;7.70;;;-1.40;99.90;-1.80;96437.00;;;;5076945;28;20812;-77
2021/11/25 07:18:16;;;;;;;9.53;6.50;;;-1.40;99.90;-1.70;96425.00;;;;5074948;28;20437;-75
2021/11/25 07:21:05;;;;;;;8.67;6.73;;;-1.40;99.90;-1.60;96416.00;;;;5058250;28;20474;-73
2021/11/25 07:23:54;;;;;;;10.17;7.33;;;-1.40;99.90;-1.60;96420.00;;;;5076230;28;20452;-75
2021/11/25 07:26:43;;;;;;;8.40;6.33;;;-1.40;99.90;-1.70;96411.00;;;;5079828;28;20431;-74
2021/11/25 07:29:35;;;;;;;10.37;7.97;;;-1.40;99.90;-1.80;96407.00;;;;5063744;28;20427;-74
2021/11/25 07:32:25;;;;;;;11.93;7.10;;;-1.40;99.90;-1.80;96409.00;;;;5077043;28;20454;-72
2021/11/25 07:35:17;;;;;;;7.40;6.60;;;-1.40;99.90;-1.80;96407.00;;;;5076081;28;20438;-74
2021/11/25 07:38:06;;;;;;;11.03;7.53;;;-1.40;99.90;-1.80;96411.00;;;;5076625;28;20422;-73
2021/11/25 07:40:55;;;;;;;14.83;8.63;;;-1.40;99.90;-1.80;96407.00;;;;5084588;28;20468;-72
2021/11/25 07:43:45;;;;;;;12.53;8.20;;;-1.40;99.90;-1.70;96406.00;;;;5075913;28;20421;-72
2021/11/25 07:46:35;;;;;;;11.53;8.03;;;-1.40;99.90;-1.80;96401.00;;;;5073182;28;20439;-73
2021/11/25 07:49:24;;;;;;;12.93;8.13;;;-1.40;99.90;-1.80;96399.00;;;;5079932;28;20467;-73
2021/11/25 07:52:13;;;;;;;13.80;9.00;;;-1.40;99.90;-1.70;96394.00;;;;5085616;28;20465;-71
2021/11/25 07:55:02;;;;;;;11.73;8.80;;;-1.40;99.90;-1.80;96377.00;;;;5069900;28;20427;-71
2021/11/25 07:57:52;;;;;;;15.47;9.70;;;-1.40;99.90;-1.80;96375.00;;;;5075467;28;20450;-73
2021/11/25 08:00:41;;;;;;;13.63;9.63;;;-1.40;99.90;-1.60;96370.00;;;;5064868;28;21000;-71
2021/11/25 08:03:31;;;;;;;14.57;9.37;;;-1.40;99.90;-1.50;96364.00;;;;5061046;28;20438;-73
2021/11/25 08:06:20;;;;;;;17.00;10.37;;;-1.30;99.90;-1.30;96365.00;;;;5056356;28;20438;-70
2021/11/25 08:09:09;;;;;;;16.37;10.37;;;-1.20;99.90;-1.10;96371.00;;;;5060632;28;20426;-73
2021/11/25 08:11:58;;;;;;;19.20;9.57;;;-1.10;99.90;-1.10;96370.00;;;;5057786;28;20439;-73
2021/11/25 08:14:47;;;;;;;24.90;10.13;;;-1.00;99.90;-0.90;96368.00;;;;5056010;28;21175;-74
2021/11/25 08:17:36;;;;;;;16.20;10.93;;;-0.90;99.90;-0.70;96361.00;;;;5056334;28;20826;-73
2021/11/25 08:20:26;;;;;;;11.40;8.73;;;-0.70;99.90;-0.80;96353.00;;;;5059461;28;20885;-74
2021/11/25 08:23:16;;;;;;;13.40;9.33;;;-0.70;99.90;-0.70;96367.00;;;;5052254;28;20423;-74
2021/11/25 08:26:07;;;;;;;12.63;7.93;;;-0.60;99.90;-0.60;96376.00;;;;5051742;28;20454;-74
2021/11/25 08:28:56;;;;;;;14.93;9.53;;;-0.50;99.90;-0.50;96371.00;;;;5053438;28;20454;-74
2021/11/25 08:31:45;;;;;;;12.20;8.97;;;-0.40;99.90;-0.30;96373.00;;;;5052758;28;20439;-74
2021/11/25 08:34:33;;;;;;;17.87;9.83;;;-0.30;99.90;0.00;96378.00;;;;5051179;28;20451;-75
2021/11/25 08:37:24;;;;;;;13.87;8.83;;;-0.10;99.90;-0.10;96389.00;;;;5054810;28;20418;-74
2021/11/25 08:40:15;;;;;;;20.83;8.77;;;0.00;99.90;0.00;96379.00;;;;5053584;28;20455;-74
2021/11/25 08:43:04;;;;;;;14.10;10.10;;;0.10;99.90;0.30;96377.00;;;;5044704;28;20553;-74
2021/11/25 08:45:54;;;;;;;23.23;8.63;;;0.20;99.90;0.40;96362.00;;;;5044796;28;20992;-73
2021/11/25 08:48:43;;;;;;;14.23;8.37;;;0.30;99.90;0.40;96358.00;;;;5046746;28;20440;-74
2021/11/25 08:51:32;;;;;;;13.37;9.63;;;0.40;99.90;0.60;96357.00;;;;5037348;28;20899;-74
2021/11/25 08:54:23;;;;;;;16.13;10.57;;;0.50;99.90;0.60;96357.00;;;;5053540;28;20443;-74
2021/11/25 08:57:12;;;;;;;13.50;8.07;;;0.60;99.90;0.70;96366.00;;;;5054666;28;20824;-73
2021/11/25 09:00:01;;;;;;;11.77;8.50;;;0.70;99.90;0.80;96363.00;;;;5052630;28;20985;-74
2021/11/25 09:02:50;;;;;;;18.00;9.10;;;0.80;99.90;0.70;96354.00;;;;5055261;28;20468;-74
2021/11/25 09:05:39;;;;;;;10.17;7.97;;;0.80;99.90;1.30;96365.00;;;;5059144;28;20963;-75
2021/11/25 09:08:29;;;;;;;12.07;8.00;;;0.90;99.90;1.50;96352.00;;;;5051563;28;20442;-75
2021/11/25 09:11:19;;;;;;;14.10;10.20;;;1.20;99.90;1.70;96351.00;;;;5055215;28;20447;-76
2021/11/25 09:14:08;;;;;;;16.10;9.90;;;1.40;99.90;1.90;96348.00;;;;5054220;28;20825;-77
2021/11/25 09:16:57;;;;;;;14.33;9.40;;;1.60;99.90;1.90;96346.00;;;;5054394;28;20431;-77
2021/11/25 09:19:46;;;;;;;15.00;10.00;;;1.70;99.90;1.70;96331.00;;;;5058322;28;20941;-74
2021/11/25 09:22:36;;;;;;;13.70;9.10;;;1.80;99.90;2.10;96337.00;;;;5055580;28;20493;-74
2021/11/25 09:25:25;;;;;;;13.47;9.27;;;1.90;99.90;2.50;96335.00;;;;5053057;28;20821;-79
2021/11/25 09:28:20;;;;;;;18.20;10.03;;;2.00;99.90;2.90;96326.00;;;;5060022;28;20429;-75
2021/11/25 09:31:13;;;;;;;15.10;9.53;;;2.30;99.90;2.90;96325.00;;;;5056702;28;20821;-76
2021/11/25 09:34:04;;;;;;;15.50;9.53;;;2.50;99.90;2.90;96314.00;;;;5059251;28;20418;-74
2021/11/25 09:36:53;;;;;;;14.07;9.50;;;2.60;99.90;2.70;96303.00;;;;5056233;28;20440;-74
2021/11/25 09:39:42;;;;;;;13.77;9.07;;;2.70;99.90;2.20;96300.00;;;;5056499;28;20445;-74
2021/11/25 09:42:31;;;;;;;14.30;9.13;;;2.70;99.90;2.20;96309.00;;;;5058550;28;20458;-74
2021/11/25 09:45:23;;;;;;;11.33;9.07;;;2.60;99.90;2.60;96290.00;;;;5052241;28;20439;-75
2021/11/25 09:48:13;;;;;;;13.00;8.50;;;2.60;99.90;2.70;96296.00;;;;5054551;28;20438;-75
2021/11/25 09:51:02;;;;;;;12.77;7.97;;;2.60;99.90;3.10;96292.00;;;;5049696;28;20984;-74
2021/11/25 09:53:51;;;;;;;14.20;9.77;;;2.70;99.90;3.20;96290.00;;;;5050554;28;20441;-74
2021/11/25 09:56:41;;;;;;;14.63;9.23;;;2.90;99.90;3.00;96275.00;;;;5054879;28;20788;-74
2021/11/25 09:59:30;;;;;;;13.07;8.83;;;3.00;99.90;2.80;96260.00;;;;5058287;28;20461;-74
2021/11/25 10:02:20;;;;;;;13.63;8.87;;;3.10;99.90;2.70;96252.00;;;;5040282;28;20894;-74
2021/11/25 10:05:09;;;;;;;11.10;8.43;;;3.10;99.90;2.00;96245.00;;;;5049559;28;20439;-74
2021/11/25 10:07:58;;;;;;;14.17;9.83;;;3.10;99.90;2.50;96242.00;;;;5049786;28;20993;-75
2021/11/25 10:10:50;;;;;;;15.53;9.80;;;3.00;99.90;3.50;96244.00;;;;5056584;28;20484;-76
2021/11/25 10:13:46;;;;;;;15.63;9.40;;;3.20;99.90;4.40;96243.00;;;;5044920;28;20432;-75
2021/11/25 10:16:39;;;;;;;11.47;8.50;;;4.00;99.90;5.10;96253.00;;;;5045695;28;20677;-74
2021/11/25 10:19:29;;;;;;;11.03;8.73;;;4.90;99.90;5.80;96250.00;;;;5045355;28;20817;-75
2021/11/25 10:22:20;;;;;;;12.83;7.93;;;5.70;99.90;5.90;96248.00;;;;5044835;28;20602;-76
2021/11/25 10:25:09;;;;;;;14.23;9.70;;;6.30;99.90;6.20;96246.00;;;;5061402;28;20200;-75
2021/11/25 10:27:58;;;;;;;13.70;8.10;;;6.70;99.90;5.70;96234.00;;;;5056481;28;20213;-74
2021/11/25 10:30:47;;;;;;;13.83;9.43;;;7.10;99.90;5.70;96227.00;;;;5049996;28;20203;-75
2021/11/25 10:33:45;;;;;;;14.67;8.17;;;7.10;99.90;6.10;96236.00;;;;5051703;28;20207;-75
2021/11/25 10:36:55;;;;;;;12.23;9.03;;;7.10;98.80;6.30;96222.00;;;;5047713;28;20200;-75
2021/11/25 10:42:53;;;;;;;14.33;9.73;;;7.30;98.50;7.10;96240.00;;;;5054714;28;20228;-74
2021/11/25 10:45:45;;;;;;;9.37;7.10;;;7.60;97.80;7.20;96234.00;;;;5065236;28;20198;-73
2021/11/25 10:48:39;;;;;;;11.13;8.27;;;7.80;95.90;7.30;96218.00;;;;5065139;28;20258;-74
2021/11/25 10:51:36;;;;;;;10.83;8.00;;;7.80;95.70;8.10;96227.00;;;;5051613;28;20685;-75
2021/11/25 10:54:25;;;;;;;11.37;8.07;;;8.10;96.40;8.80;96230.00;;;;5028771;28;20639;-75
2021/11/25 10:57:15;;;;;;;10.33;9.20;;;8.50;96.40;9.10;96219.00;;;;5043502;28;20728;-75
2021/11/25 11:00:12;;;;;;;12.70;8.40;;;8.90;95.10;9.20;96211.00;;;;5042564;28;20282;-75
2021/11/25 11:03:07;;;;;;;10.83;8.23;;;9.30;92.70;9.90;96205.00;;;;5046784;28;20239;-75
2021/11/25 11:05:59;;;;;;;12.00;7.80;;;9.60;92.50;9.50;96210.00;;;;5052695;28;20208;-75
2021/11/25 11:08:50;;;;;;;15.03;8.77;;;9.90;88.70;9.60;96209.00;;;;5045308;28;20213;-76
2021/11/25 11:11:40;;;;;;;11.07;8.30;;;10.10;86.00;9.00;96197.00;;;;5039878;28;20305;-75
2021/11/25 11:14:31;;;;;;;13.83;9.67;;;9.90;84.00;8.80;96176.00;;;;5042837;28;20210;-75
2021/11/25 11:17:25;;;;;;;12.13;9.70;;;10.00;80.60;9.60;96172.00;;;;5057265;28;20209;-75
2021/11/25 11:20:17;;;;;;;16.53;10.40;;;10.00;81.70;9.50;96166.00;;;;5056292;28;20210;-75
2021/11/25 11:23:07;;;;;;;15.33;11.30;;;10.10;81.50;9.30;96168.00;;;;5063538;28;20240;-75
2021/11/25 11:25:59;;;;;;;17.90;11.97;;;10.00;81.00;9.20;96159.00;;;;5053019;28;20219;-75
2021/11/25 11:28:48;;;;;;;16.17;10.73;;;10.30;78.70;8.80;96146.00;;;;5055316;28;20201;-74
2021/11/25 11:31:39;;;;;;;12.60;10.17;;;10.20;79.70;9.50;96156.00;;;;5064185;28;20311;-74
2021/11/25 11:34:29;;;;;;;13.53;11.13;;;10.00;77.90;10.50;96152.00;;;;5066497;28;20196;-75
2021/11/25 11:37:20;;;;;;;20.30;12.47;;;10.80;77.40;10.80;96148.00;;;;5054181;28;20219;-76
2021/11/25 11:40:11;;;;;;;15.20;10.90;;;11.00;77.90;10.40;96131.00;;;;5070944;28;20204;-76
2021/11/25 11:43:18;;;;;;;15.43;11.00;;;11.30;74.50;10.70;96131.00;;;;5024945;28;20273;-78
2021/11/25 11:46:07;;;;;;;16.80;11.70;;;11.40;73.90;11.30;96115.00;;;;5042423;28;20717;-76
2021/11/25 11:49:00;;;;;;;14.77;10.83;;;11.60;73.50;11.30;96132.00;;;;5047195;28;20287;-79
2021/11/25 11:52:02;;;;;;;15.27;9.73;;;11.80;71.40;11.50;96114.00;;;;5044894;28;20582;-77
2021/11/25 11:54:55;;;;;;;14.47;9.97;;;12.10;69.80;11.40;96112.00;;;;5041119;28;20254;-78
2021/11/25 11:57:44;;;;;;;13.73;10.10;;;12.30;68.10;12.00;96108.00;;;;5049073;28;20211;-79
2021/11/25 12:00:37;;;;;;;14.10;9.20;;;12.40;67.80;12.20;96102.00;;;;5046352;28;20473;-79
2021/11/25 12:03:34;;;;;;;11.67;9.93;;;12.40;68.00;11.80;96098.00;;;;5046209;28;21535;-77
2021/11/25 12:06:37;;;;;;;12.33;9.70;;;12.60;65.60;11.70;96086.00;;;;5046758;28;20218;-77
2021/11/25 12:09:36;;;;;;;11.33;9.90;;;12.80;63.70;12.60;96091.00;;;;5043849;28;20215;-78
2021/11/25 12:12:25;;;;;;;11.63;10.17;;;13.10;63.80;13.50;96088.00;;;;5045604;28;20232;-78
2021/11/25 12:15:19;;;;;;;14.20;10.10;;;13.30;63.40;13.90;96083.00;;;;5039057;28;20203;-78
2021/11/25 12:18:32;;;;;;;13.53;10.47;;;13.60;63.00;14.00;96078.00;;;;5051830;28;20201;-77
2021/11/25 12:21:42;;;;;;;12.53;9.87;;;13.90;61.30;13.70;96076.00;;;;5044077;28;20380;-77
2021/11/25 12:24:46;;;;;;;15.30;10.83;;;14.00;59.90;13.40;96076.00;;;;5045506;28;20211;-76
2021/11/25 12:27:36;;;;;;;11.50;9.43;;;14.30;58.20;13.70;96064.00;;;;5045205;28;20699;-77
2021/11/25 12:30:39;;;;;;;11.90;8.80;;;14.30;58.30;13.90;96058.00;;;;5033324;28;20209;-77
2021/11/25 12:33:42;;;;;;;14.50;10.43;;;14.50;58.20;14.20;96050.00;;;;5044363;28;20200;-77
2021/11/25 12:36:40;;;;;;;13.40;10.87;;;14.60;57.90;14.50;96060.00;;;;5046305;28;20208;-75
2021/11/25 12:39:40;;;;;;;13.87;10.33;;;14.80;58.20;14.30;96054.00;;;;5040517;28;20671;-77
2021/11/25 12:42:29;;;;;;;14.77;10.10;;;14.70;58.00;14.10;96051.00;;;;5050689;28;20236;-76
2021/11/25 12:45:23;;;;;;;17.93;11.30;;;14.70;57.90;14.40;96052.00;;;;5049063;28;20326;-76